Time;durP1;ratioP1;P1;durP2;ratioP2;P2;SDS_P1;SDS_P2;PMS_P1;PMS_P2;Temp;Humidity;BMP_temperature;BMP_pressure;BME280_temperature;BME280_humidity;BME280_pressure;Samples;Min_cycle;Max_cycle;Signal;HPM_P1;HPM_P2
2022/10/13 00:00:33;;;;;;;;;23.75;22.75;;;;;16.40;62.85;101664.94;5055905;28;45372;-59
2022/10/13 00:03:00;;;;;;;;;19.50;17.50;;;;;16.32;62.73;101649.06;5055051;28;45312;-59
2022/10/13 00:05:26;;;;;;;;;19.50;19.50;;;;;16.41;62.98;101664.00;5055221;28;46096;-59
2022/10/13 00:07:51;;;;;;;;;19.75;19.75;;;;;16.41;62.72;101666.69;5057176;28;45472;-59
2022/10/13 00:10:17;;;;;;;;;18.75;14.50;;;;;16.41;62.93;101662.19;5058951;28;45391;-59
2022/10/13 00:12:42;;;;;;;;;22.75;21.75;;;;;16.42;63.00;101654.97;5059163;28;45339;-59
2022/10/13 00:15:08;;;;;;;;;21.00;20.50;;;;;16.40;62.86;101657.72;5056139;28;45302;-60
2022/10/13 00:17:35;;;;;;;;;19.75;17.50;;;;;16.38;62.87;101654.22;5056798;28;46699;-59
2022/10/13 00:20:01;;;;;;;;;18.00;18.00;;;;;16.40;62.79;101659.56;5057384;28;45669;-59
2022/10/13 00:22:27;;;;;;;;;20.50;19.00;;;;;16.40;62.78;101673.88;5058106;28;45377;-59
2022/10/13 00:24:53;;;;;;;;;16.50;16.25;;;;;16.40;62.97;101671.19;5056319;28;46144;-59
2022/10/13 00:27:19;;;;;;;;;17.75;16.00;;;;;16.42;62.76;101663.03;5058453;28;45435;-59
2022/10/13 00:29:44;;;;;;;;;18.75;15.00;;;;;16.38;62.62;101659.59;5058157;28;45501;-59
2022/10/13 00:32:09;;;;;;;;;22.50;19.25;;;;;16.40;62.79;101654.16;5059042;28;45408;-59
2022/10/13 00:34:38;;;;;;;;;19.00;17.75;;;;;16.40;62.78;101659.56;5055352;28;45413;-59
2022/10/13 00:37:04;;;;;;;;;20.25;18.50;;;;;16.35;62.75;101642.69;5055746;28;45562;-59
2022/10/13 00:39:29;;;;;;;;;18.50;18.00;;;;;16.34;62.82;101636.44;5058383;28;45627;-59
2022/10/13 00:41:57;;;;;;;;;19.75;19.00;;;;;16.36;62.99;101631.84;5045514;28;45596;-59
2022/10/13 00:45:00;;;;;;;;;17.25;17.25;;;;;16.36;62.84;101625.59;5055953;28;47226;-59
2022/10/13 00:47:29;;;;;;;;;15.75;15.00;;;;;16.37;62.85;101624.66;5057812;28;45406;-59
2022/10/13 00:49:55;;;;;;;;;21.50;19.00;;;;;16.33;62.95;101610.44;5058589;28;45421;-59
2022/10/13 00:52:23;;;;;;;;;22.00;21.00;;;;;16.33;62.83;101613.13;5058646;28;45339;-60
2022/10/13 00:54:50;;;;;;;;;11.75;11.00;;;;;16.37;62.92;101622.84;5042682;28;45648;-59
2022/10/13 00:57:19;;;;;;;;;18.00;16.50;;;;;16.36;63.19;101620.22;5058128;28;45563;-59
2022/10/13 00:59:46;;;;;;;;;21.00;16.00;;;;;16.38;63.14;101621.88;5057253;28;45425;-59
2022/10/13 01:02:11;;;;;;;;;20.00;18.00;;;;;16.39;63.18;101617.38;5057587;28;45276;-59
2022/10/13 01:04:42;;;;;;;;;18.00;18.00;;;;;16.38;63.08;101613.81;5055495;28;45360;-59
2022/10/13 01:07:08;;;;;;;;;17.25;17.25;;;;;16.35;63.00;101610.38;5057084;28;45485;-59
2022/10/13 01:09:36;;;;;;;;;17.50;16.50;;;;;16.33;63.02;101617.66;5054109;28;45554;-59
2022/10/13 01:12:26;;;;;;;;;17.50;16.25;;;;;16.37;63.38;101635.44;5064002;28;45642;-59
2022/10/13 01:15:01;;;;;;;;;18.25;17.25;;;;;16.36;63.38;101626.47;5046119;28;45372;-59
2022/10/13 01:17:43;;;;;;;;;17.25;17.25;;;;;16.34;63.15;101622.97;5056680;28;45407;-59
2022/10/13 01:20:17;;;;;;;;;17.50;17.00;;;;;16.36;63.30;101615.69;5057763;28;45742;-59
2022/10/13 01:23:04;;;;;;;;;16.00;15.25;;;;;16.36;63.34;101609.44;5057752;28;45317;-59
2022/10/13 01:25:41;;;;;;;;;17.75;16.25;;;;;16.34;63.41;101611.31;5041280;28;47182;-60
2022/10/13 01:28:54;;;;;;;;;13.25;13.25;;;;;16.34;63.45;101622.97;5039379;28;45349;-60
2022/10/13 01:31:32;;;;;;;;;15.00;15.00;;;;;16.32;63.42;101618.56;5051226;28;45452;-59
2022/10/13 01:34:43;;;;;;;;;14.50;14.50;;;;;16.33;63.53;101607.75;5046350;28;45396;-59
2022/10/13 01:37:25;;;;;;;;;17.75;17.00;;;;;16.30;63.47;101600.69;4957303;28;46202;-59
2022/10/13 01:40:09;;;;;;;;;16.00;16.00;;;;;16.27;63.34;101606.19;4969671;28;45626;-59
2022/10/13 01:42:58;;;;;;;;;19.00;15.00;;;;;16.33;63.36;101601.47;5034899;28;45381;-59
2022/10/13 01:45:31;;;;;;;;;18.00;15.25;;;;;16.32;63.47;101600.59;5057494;28;45612;-59
2022/10/13 01:48:00;;;;;;;;;18.50;17.00;;;;;16.33;63.49;101609.56;5061172;28;45477;-59
2022/10/13 01:50:27;;;;;;;;;19.50;18.00;;;;;16.30;63.62;101607.88;5061401;28;45659;-59
2022/10/13 01:52:53;;;;;;;;;17.25;15.50;;;;;16.32;63.72;101616.75;5059953;28;45403;-60
2022/10/13 01:55:18;;;;;;;;;16.00;15.50;;;;;16.31;63.56;101617.72;5058097;28;45352;-59
2022/10/13 01:57:44;;;;;;;;;18.00;16.00;;;;;16.28;63.49;101607.06;5060291;28;45427;-59
2022/10/13 02:00:11;;;;;;;;;21.00;19.00;;;;;16.32;63.68;101588.94;5060733;28;45535;-60
2022/10/13 02:02:52;;;;;;;;;20.50;17.75;;;;;16.34;63.76;101595.13;5061043;28;45484;-59
2022/10/13 02:05:40;;;;;;;;;20.25;18.50;;;;;16.36;63.42;101604.06;5043121;28;45367;-59
2022/10/13 02:08:21;;;;;;;;;20.25;20.25;;;;;16.37;63.48;101611.16;5044082;28;45317;-59
2022/10/13 02:10:51;;;;;;;;;19.00;17.75;;;;;16.06;63.35;101559.50;5057434;28;45466;-59
2022/10/13 02:13:20;;;;;;;;;18.50;17.50;;;;;16.37;63.73;101592.31;5043422;28;45558;-59
2022/10/13 02:15:51;;;;;;;;;14.75;14.75;;;;;16.36;63.69;101595.97;5057418;28;45503;-59
2022/10/13 02:18:21;;;;;;;;;18.00;18.00;;;;;16.34;63.67;101587.94;5060971;28;46534;-59
2022/10/13 02:20:47;;;;;;;;;15.25;15.25;;;;;16.36;63.79;101595.97;5059941;28;45658;-59
2022/10/13 02:23:15;;;;;;;;;22.50;20.75;;;;;16.33;63.94;101582.63;5060889;28;45362;-59
2022/10/13 02:25:42;;;;;;;;;21.50;19.50;;;;;16.36;63.64;101582.50;5057780;28;45482;-59
2022/10/13 02:28:08;;;;;;;;;21.50;17.00;;;;;16.34;63.76;101577.16;5059803;28;45314;-59
2022/10/13 02:30:34;;;;;;;;;18.50;17.00;;;;;16.33;63.92;101570.03;5059101;28;45425;-59
2022/10/13 02:33:00;;;;;;;;;15.50;15.50;;;;;16.34;63.73;101578.97;5061476;28;45384;-59
2022/10/13 02:35:26;;;;;;;;;19.00;18.50;;;;;16.33;63.87;101567.31;5059062;28;45477;-59
2022/10/13 02:37:51;;;;;;;;;17.50;15.75;;;;;16.34;63.99;101573.56;5059798;28;45503;-59
2022/10/13 02:40:17;;;;;;;;;15.00;15.00;;;;;16.34;64.10;101570.88;5060768;28;47850;-59
2022/10/13 02:42:42;;;;;;;;;15.00;14.25;;;;;16.28;64.24;101553.19;5060990;28;45833;-59
2022/10/13 02:45:08;;;;;;;;;16.00;14.00;;;;;16.29;63.94;101553.13;5057750;28;45439;-60
2022/10/13 02:47:34;;;;;;;;;17.00;15.50;;;;;16.29;64.10;101542.34;5059938;28;45495;-60
2022/10/13 02:49:59;;;;;;;;;17.00;15.25;;;;;16.26;64.29;101529.00;5060762;28;45416;-59
2022/10/13 02:52:25;;;;;;;;;16.25;16.25;;;;;16.26;64.22;101526.31;5060911;28;45291;-60
2022/10/13 02:54:51;;;;;;;;;16.00;12.00;;;;;16.26;64.39;101528.13;5057960;28;45281;-59
2022/10/13 02:57:17;;;;;;;;;18.50;15.50;;;;;16.25;64.35;101529.06;5059377;28;46104;-60
2022/10/13 02:59:43;;;;;;;;;12.00;11.50;;;;;16.26;64.32;101536.22;5058569;28;45420;-59
2022/10/13 03:02:08;;;;;;;;;16.00;13.00;;;;;16.28;64.35;101539.72;5048052;28;45309;-60
2022/10/13 03:04:34;;;;;;;;;12.75;12.50;;;;;16.27;64.46;101546.94;5056875;28;45338;-59
2022/10/13 03:06:59;;;;;;;;;15.00;12.25;;;;;16.30;64.47;101556.69;5060317;28;45469;-60
2022/10/13 03:09:24;;;;;;;;;14.50;14.50;;;;;16.29;64.59;101547.72;5047395;28;45472;-59
2022/10/13 03:11:50;;;;;;;;;12.00;12.00;;;;;16.26;64.59;101539.78;5059928;28;45509;-59
2022/10/13 03:14:15;;;;;;;;;11.00;11.00;;;;;16.26;64.82;101538.91;5057443;28;45482;-59
2022/10/13 03:16:40;;;;;;;;;14.50;12.75;;;;;16.28;64.50;101543.28;5058801;28;45742;-60
2022/10/13 03:19:06;;;;;;;;;12.00;12.00;;;;;16.30;64.56;101546.81;5060738;28;45573;-60
2022/10/13 03:21:31;;;;;;;;;16.00;14.75;;;;;16.31;64.52;101536.88;5059967;28;45385;-59
2022/10/13 03:23:56;;;;;;;;;16.00;15.25;;;;;16.30;64.63;101535.13;5060071;28;45353;-59
2022/10/13 03:26:22;;;;;;;;;16.00;13.75;;;;;16.29;64.67;101534.25;5055575;28;45505;-59
2022/10/13 03:28:51;;;;;;;;;15.00;12.75;;;;;16.29;64.59;101523.47;5058043;28;45446;-59
2022/10/13 03:31:17;;;;;;;;;12.50;12.50;;;;;16.26;64.46;101504.75;5060340;28;45363;-60
2022/10/13 03:33:43;;;;;;;;;11.00;11.00;;;;;16.30;64.64;101506.38;5060069;28;45527;-59
2022/10/13 03:36:10;;;;;;;;;14.25;11.50;;;;;16.29;64.80;101498.38;5056022;28;45526;-60
2022/10/13 03:38:36;;;;;;;;;15.25;13.50;;;;;16.32;64.75;101521.59;5051229;28;45630;-60
2022/10/13 03:41:12;;;;;;;;;13.50;13.50;;;;;16.32;64.62;101518.91;5051094;28;45498;-59
2022/10/13 03:43:37;;;;;;;;;13.25;12.25;;;;;16.28;64.77;101516.31;5059877;28;45325;-60
2022/10/13 03:46:05;;;;;;;;;16.00;15.00;;;;;16.30;64.71;101514.47;5056496;28;46311;-59
2022/10/13 03:48:32;;;;;;;;;14.25;11.25;;;;;16.30;64.91;101508.19;5058618;28;45316;-59
2022/10/13 03:50:57;;;;;;;;;12.25;11.25;;;;;16.29;64.72;101498.38;5059499;28;45604;-59
2022/10/13 03:53:23;;;;;;;;;15.50;12.75;;;;;16.29;65.03;101499.25;5059789;28;45285;-59
2022/10/13 03:55:53;;;;;;;;;14.50;13.75;;;;;16.28;64.73;101484.00;5054992;28;46134;-60
2022/10/13 03:58:19;;;;;;;;;13.00;12.25;;;;;16.28;64.67;101484.00;5058745;28;45619;-59
2022/10/13 04:00:45;;;;;;;;;13.00;13.00;;;;;16.29;64.75;101483.06;5059032;28;45371;-59
2022/10/13 04:03:10;;;;;;;;;14.00;12.75;;;;;16.30;64.70;101487.53;5059750;28;45636;-59
2022/10/13 04:05:35;;;;;;;;;14.00;12.00;;;;;16.32;64.53;101495.50;5055276;28;45444;-60
2022/10/13 04:08:01;;;;;;;;;16.25;13.50;;;;;16.32;64.68;101490.13;5057137;28;45304;-60
2022/10/13 04:10:26;;;;;;;;;12.75;12.75;;;;;16.22;64.71;101473.53;5058175;28;45423;-59
2022/10/13 04:12:51;;;;;;;;;11.25;10.25;;;;;16.30;64.59;101487.53;5059650;28;45348;-60
2022/10/13 04:15:17;;;;;;;;;14.00;13.25;;;;;16.31;64.80;101485.69;5054012;28;46463;-59
2022/10/13 04:17:42;;;;;;;;;13.00;13.00;;;;;16.31;64.80;101474.91;5058191;28;45335;-59
2022/10/13 04:20:08;;;;;;;;;12.25;12.25;;;;;16.29;64.87;101472.28;5057587;28;45481;-60
2022/10/13 04:22:33;;;;;;;;;15.25;12.75;;;;;16.29;64.82;101484.91;5059359;28;45471;-59
2022/10/13 04:24:59;;;;;;;;;14.00;13.25;;;;;16.31;64.63;101499.16;5057766;28;46091;-59
2022/10/13 04:27:25;;;;;;;;;12.25;12.00;;;;;16.33;64.58;101496.41;5059104;28;46570;-59
2022/10/13 04:29:51;;;;;;;;;15.50;13.00;;;;;16.30;64.63;101484.84;5057608;28;45431;-59
2022/10/13 04:32:16;;;;;;;;;13.75;13.00;;;;;16.32;64.73;101484.72;5058938;28;45620;-60
2022/10/13 04:34:41;;;;;;;;;13.00;11.75;;;;;16.33;64.69;101494.59;5055295;28;45414;-59
2022/10/13 04:37:07;;;;;;;;;15.00;14.00;;;;;16.33;64.48;101496.41;5058427;28;45374;-59
2022/10/13 04:39:32;;;;;;;;;13.25;11.75;;;;;16.32;64.61;101492.81;5040586;28;45377;-59
2022/10/13 04:41:57;;;;;;;;;14.00;13.25;;;;;16.34;64.92;101492.75;5059239;28;45516;-59
2022/10/13 04:44:23;;;;;;;;;16.00;13.00;;;;;16.32;64.69;101490.13;5056954;28;45630;-59
2022/10/13 04:46:48;;;;;;;;;15.25;13.50;;;;;16.27;64.64;101484.06;5050750;28;45296;-59
2022/10/13 04:49:15;;;;;;;;;17.25;13.25;;;;;16.34;64.65;101501.72;5053097;28;45510;-59
2022/10/13 04:51:40;;;;;;;;;15.25;14.75;;;;;16.33;64.77;101497.28;5056982;28;45530;-59
2022/10/13 04:54:06;;;;;;;;;12.75;11.75;;;;;16.34;64.60;101495.44;5055573;28;45561;-59
2022/10/13 04:56:32;;;;;;;;;13.50;13.50;;;;;16.32;64.63;101491.94;5057694;28;45245;-59
2022/10/13 04:58:58;;;;;;;;;17.00;16.50;;;;;16.29;64.78;101493.84;5058146;28;45315;-60
2022/10/13 05:01:24;;;;;;;;;12.00;11.25;;;;;16.28;64.49;101491.22;5054165;28;45335;-59
2022/10/13 05:03:54;;;;;;;;;15.50;14.75;;;;;16.30;64.47;101494.72;5058928;28;45520;-59
2022/10/13 05:06:25;;;;;;;;;16.25;13.00;;;;;16.29;64.64;101484.91;5056153;28;45545;-59
2022/10/13 05:08:50;;;;;;;;;12.00;12.00;;;;;16.26;64.59;101482.34;5057813;28;45734;-59
2022/10/13 05:11:16;;;;;;;;;15.25;12.75;;;;;16.26;64.73;101475.13;5058580;28;45595;-59
2022/10/13 05:13:42;;;;;;;;;12.00;11.00;;;;;16.27;64.64;101470.59;5057335;28;45524;-59
2022/10/13 05:16:09;;;;;;;;;13.75;13.00;;;;;16.25;64.57;101476.06;5056315;28;45919;-59
2022/10/13 05:18:36;;;;;;;;;12.75;11.75;;;;;16.24;64.69;101471.63;5055491;28;45491;-59
2022/10/13 05:21:11;;;;;;;;;14.75;14.75;;;;;16.26;64.90;101482.34;5057477;28;45277;-59
2022/10/13 05:23:36;;;;;;;;;13.50;11.00;;;;;16.23;64.96;101485.16;5061627;28;45677;-59
2022/10/13 05:26:05;;;;;;;;;14.75;13.25;;;;;16.20;64.74;101478.06;5058406;28;45582;-59
2022/10/13 05:28:30;;;;;;;;;11.75;11.75;;;;;16.23;64.74;101482.47;5061985;28;45456;-60
2022/10/13 05:30:56;;;;;;;;;13.00;12.00;;;;;16.21;64.98;101477.16;5060661;28;45695;-59
2022/10/13 05:33:21;;;;;;;;;13.25;13.00;;;;;16.16;64.98;101460.31;5061663;28;45379;-59
2022/10/13 05:35:46;;;;;;;;;14.00;11.75;;;;;16.18;65.06;101469.19;5053158;28;45476;-59
2022/10/13 05:38:12;;;;;;;;;14.00;14.00;;;;;16.21;64.82;101452.91;5060696;28;45458;-59
2022/10/13 05:40:37;;;;;;;;;12.50;10.25;;;;;16.20;64.84;101458.34;5061319;28;45637;-59
2022/10/13 05:43:03;;;;;;;;;14.25;13.00;;;;;16.20;64.92;101461.91;5060801;28;46810;-59
2022/10/13 05:45:31;;;;;;;;;13.00;13.00;;;;;16.19;65.07;101452.09;5055814;28;45462;-61
2022/10/13 05:47:57;;;;;;;;;15.25;11.75;;;;;16.17;65.06;101447.72;5059321;28;45380;-61
2022/10/13 05:50:23;;;;;;;;;11.75;11.75;;;;;16.17;64.94;101448.63;5061309;28;45233;-61
2022/10/13 05:52:49;;;;;;;;;14.75;12.25;;;;;16.19;65.09;101445.81;5061266;28;46271;-61
2022/10/13 05:55:16;;;;;;;;;14.00;12.75;;;;;16.16;64.97;101435.22;5060665;28;45332;-61
2022/10/13 05:57:48;;;;;;;;;12.00;12.00;;;;;16.17;65.21;101431.56;5042402;28;45411;-61
2022/10/13 06:00:16;;;;;;;;;12.75;11.75;;;;;16.17;65.11;101429.75;5061538;28;45534;-60
2022/10/13 06:02:54;;;;;;;;;14.50;13.00;;;;;16.18;65.21;101438.69;5061535;28;46055;-61
2022/10/13 06:05:23;;;;;;;;;14.00;13.00;;;;;16.16;65.49;101441.47;5056675;28;45582;-60
2022/10/13 06:07:48;;;;;;;;;15.75;13.75;;;;;16.19;65.24;101453.91;5062163;27;45669;-61
2022/10/13 06:10:14;;;;;;;;;14.75;13.00;;;;;16.15;65.16;101458.56;5060488;28;45445;-61
2022/10/13 06:12:39;;;;;;;;;13.50;12.25;;;;;16.17;65.32;101454.00;5061248;28;45471;-61
2022/10/13 06:15:05;;;;;;;;;15.50;14.75;;;;;16.17;65.26;101467.47;5057176;28;45797;-61
2022/10/13 06:17:31;;;;;;;;;14.00;12.50;;;;;16.16;65.34;101463.00;5059286;28;45314;-61
2022/10/13 06:19:56;;;;;;;;;10.00;8.75;;;;;16.15;65.45;101458.56;5042516;28;45382;-61
2022/10/13 06:22:22;;;;;;;;;13.25;11.75;;;;;16.14;65.42;101455.94;5060451;28;45374;-61
2022/10/13 06:24:47;;;;;;;;;11.75;11.25;;;;;16.09;65.33;101450.78;5059715;28;45360;-61
2022/10/13 06:27:13;;;;;;;;;12.50;12.25;;;;;16.13;65.58;101459.59;5061297;28;45741;-61
2022/10/13 06:29:38;;;;;;;;;14.50;11.75;;;;;16.15;65.53;101463.06;5060828;28;45560;-61
2022/10/13 06:32:04;;;;;;;;;14.50;14.50;;;;;16.11;65.55;101454.25;5058383;28;46144;-61
2022/10/13 06:34:29;;;;;;;;;12.00;11.00;;;;;16.08;65.42;101449.00;5056174;28;45355;-61
2022/10/13 06:36:54;;;;;;;;;12.25;11.00;;;;;16.08;65.44;101443.63;5058146;28;45324;-61
2022/10/13 06:39:20;;;;;;;;;11.25;10.00;;;;;16.12;65.47;101450.59;5064996;28;45347;-61
2022/10/13 06:41:45;;;;;;;;;9.75;9.75;;;;;16.12;65.47;101450.59;5060424;28;46577;-61
2022/10/13 06:44:10;;;;;;;;;6.25;6.25;;;;;16.12;65.42;101445.22;5058137;28;45319;-61
2022/10/13 06:46:36;;;;;;;;;10.25;10.25;;;;;16.14;65.42;101442.47;5058071;28;45370;-61
2022/10/13 06:49:01;;;;;;;;;11.25;11.00;;;;;16.11;65.41;101438.97;5059950;28;45421;-61
2022/10/13 06:51:27;;;;;;;;;14.50;14.00;;;;;16.09;65.38;101443.56;5059558;28;45305;-61
2022/10/13 06:53:54;;;;;;;;;11.50;10.75;;;;;16.12;65.42;101456.00;5060562;28;45320;-61
2022/10/13 06:56:19;;;;;;;;;13.00;13.00;;;;;16.14;65.44;101462.22;5050769;28;45524;-61
2022/10/13 06:58:45;;;;;;;;;10.75;10.25;;;;;16.16;65.29;101451.38;5061107;28;45433;-60
2022/10/13 07:01:12;;;;;;;;;13.25;11.00;;;;;16.15;65.18;101455.88;5056181;28;46205;-60
2022/10/13 07:03:37;;;;;;;;;9.75;9.75;;;;;16.11;65.25;101455.13;5059341;28;45533;-60
2022/10/13 07:06:05;;;;;;;;;13.25;11.50;;;;;16.16;65.23;101463.00;5056953;28;46489;-59
2022/10/13 07:08:31;;;;;;;;;9.50;9.50;;;;;16.16;65.04;101464.84;5058281;28;45395;-60
2022/10/13 07:10:57;;;;;;;;;10.00;9.50;;;;;16.17;65.24;101466.56;5058848;28;45325;-59
2022/10/13 07:13:23;;;;;;;;;13.25;8.75;;;;;16.15;64.95;101465.78;5066508;28;45390;-60
2022/10/13 07:15:48;;;;;;;;;10.75;9.50;;;;;16.18;65.17;101466.50;5056816;28;45296;-60
2022/10/13 07:18:13;;;;;;;;;7.50;7.00;;;;;16.17;65.11;101463.88;5058506;28;45224;-60
2022/10/13 07:20:39;;;;;;;;;9.25;9.00;;;;;16.17;65.01;101469.25;5056894;28;46124;-60
2022/10/13 07:23:04;;;;;;;;;13.00;9.25;;;;;16.19;65.25;101488.91;5056697;28;47176;-60
2022/10/13 07:25:30;;;;;;;;;9.25;8.00;;;;;16.19;65.49;101487.13;5056726;28;45364;-59
2022/10/13 07:27:58;;;;;;;;;10.75;9.75;;;;;16.15;65.35;101472.03;5056918;28;45651;-60
2022/10/13 07:30:23;;;;;;;;;9.00;7.00;;;;;16.21;65.37;101479.84;5059493;28;45386;-59
2022/10/13 07:32:49;;;;;;;;;12.75;10.00;;;;;16.20;65.23;101470.00;5054166;28;45411;-59
2022/10/13 07:35:14;;;;;;;;;8.75;7.75;;;;;16.19;65.47;101470.97;5057318;28;45684;-60
2022/10/13 07:37:40;;;;;;;;;6.75;6.75;;;;;16.15;65.36;101463.94;5058038;28;45503;-59
2022/10/13 07:40:06;;;;;;;;;6.75;6.75;;;;;16.16;65.00;101467.53;5058874;28;46256;-60
2022/10/13 07:42:32;;;;;;;;;8.50;8.00;;;;;16.11;65.46;101463.22;5054467;28;45506;-59
2022/10/13 07:44:57;;;;;;;;;8.00;7.00;;;;;16.08;65.38;101457.09;5052337;28;45498;-60
2022/10/13 07:47:22;;;;;;;;;8.00;7.50;;;;;16.14;65.33;101467.59;5050892;28;45352;-59
2022/10/13 07:49:49;;;;;;;;;9.00;7.25;;;;;16.17;65.47;101477.34;5055873;28;47502;-60
2022/10/13 07:52:14;;;;;;;;;8.00;7.75;;;;;16.17;65.34;101486.31;5057256;28;46051;-59
2022/10/13 07:54:40;;;;;;;;;7.25;6.25;;;;;16.16;65.25;101483.69;5058112;28;45453;-60
2022/10/13 07:57:05;;;;;;;;;9.25;7.00;;;;;16.21;65.28;101484.38;5053744;28;45764;-60
2022/10/13 07:59:32;;;;;;;;;7.50;6.75;;;;;16.14;65.13;101480.16;5057553;28;47443;-60
2022/10/13 08:01:59;;;;;;;;;8.00;7.50;;;;;16.20;65.23;101496.94;5054410;28;45565;-59
2022/10/13 08:04:27;;;;;;;;;8.50;8.00;;;;;16.20;65.16;101496.94;5060124;28;45443;-59
2022/10/13 08:06:52;;;;;;;;;8.25;6.25;;;;;16.19;65.07;101486.22;5060648;28;45618;-59
2022/10/13 08:09:18;;;;;;;;;8.00;6.00;;;;;16.17;65.18;101488.13;5063396;28;45997;-59
2022/10/13 08:11:43;;;;;;;;;9.25;7.00;;;;;16.22;65.18;101507.63;5060548;28;45374;-59
2022/10/13 08:14:10;;;;;;;;;8.25;7.50;;;;;16.20;64.92;101499.63;5057907;28;45609;-59
2022/10/13 08:16:38;;;;;;;;;7.50;7.50;;;;;16.22;65.27;101507.63;5056559;28;45481;-59
2022/10/13 08:19:04;;;;;;;;;8.25;8.00;;;;;16.20;65.22;101501.44;5057280;28;45401;-59
2022/10/13 08:21:29;;;;;;;;;6.50;6.50;;;;;16.21;65.19;101504.09;5055921;28;45352;-59
2022/10/13 08:23:54;;;;;;;;;8.75;6.00;;;;;16.23;65.00;101510.28;5056670;28;45627;-60
2022/10/13 08:26:23;;;;;;;;;6.25;5.50;;;;;16.23;64.94;101512.09;5055466;28;45305;-59
2022/10/13 08:28:49;;;;;;;;;5.75;5.25;;;;;16.22;64.90;101499.56;5055985;28;45290;-59
2022/10/13 08:31:15;;;;;;;;;8.50;8.25;;;;;16.22;65.31;101492.38;5053526;28;45598;-60
2022/10/13 08:33:40;;;;;;;;;5.25;5.25;;;;;16.23;64.99;101495.94;5057080;28;45739;-59
2022/10/13 08:36:07;;;;;;;;;6.25;6.25;;;;;16.23;64.87;101495.94;5055361;28;45642;-59
2022/10/13 08:38:33;;;;;;;;;8.25;6.50;;;;;16.24;64.93;101497.69;5055555;28;45600;-59
2022/10/13 08:40:59;;;;;;;;;7.25;6.00;;;;;16.25;65.00;101504.81;5062177;28;45754;-59
2022/10/13 08:43:25;;;;;;;;;7.75;6.00;;;;;16.25;64.87;101503.00;5062503;28;45379;-60
2022/10/13 08:45:54;;;;;;;;;5.00;5.00;;;;;16.25;65.11;101516.47;5056798;28;46913;-59
2022/10/13 08:48:40;;;;;;;;;5.00;4.25;;;;;16.27;64.86;101513.69;5055911;28;46473;-59
2022/10/13 08:51:06;;;;;;;;;5.75;5.75;;;;;16.26;65.21;101501.19;5056107;28;45767;-59
2022/10/13 08:53:40;;;;;;;;;5.50;5.50;;;;;16.28;64.81;101505.56;5050520;28;45456;-60
2022/10/13 08:56:18;;;;;;;;;6.00;5.50;;;;;16.29;65.01;101507.31;5061456;28;45402;-59
2022/10/13 08:58:44;;;;;;;;;8.50;7.00;;;;;16.30;64.87;101505.50;5053803;28;46342;-59
2022/10/13 09:01:09;;;;;;;;;6.25;5.25;;;;;16.32;64.77;101498.22;5057334;28;45524;-59
2022/10/13 09:04:15;;;;;;;;;6.00;4.25;;;;;16.35;64.76;101508.00;5053115;28;45514;-59
2022/10/13 09:06:45;;;;;;;;;6.75;5.25;;;;;16.37;64.78;101503.41;5047909;28;45596;-60
2022/10/13 09:09:14;;;;;;;;;6.00;5.75;;;;;16.37;64.52;101488.13;5056677;28;47082;-60
2022/10/13 09:11:42;;;;;;;;;5.75;5.50;;;;;16.37;64.93;101490.81;5057339;28;45825;-59
2022/10/13 09:14:32;;;;;;;;;5.00;5.00;;;;;16.41;64.88;101499.63;5043227;28;45414;-59
2022/10/13 09:17:25;;;;;;;;;4.25;4.00;;;;;16.43;64.72;101497.75;5056840;28;45505;-59
2022/10/13 09:20:18;;;;;;;;;7.75;5.75;;;;;16.44;64.81;101499.50;5055276;28;47311;-59
2022/10/13 09:22:59;;;;;;;;;3.75;3.50;;;;;16.42;64.77;101495.97;5051292;28;45470;-60
2022/10/13 09:25:25;;;;;;;;;7.00;5.25;;;;;16.45;64.80;101504.81;5046943;28;45429;-59
2022/10/13 09:27:56;;;;;;;;;5.50;5.50;;;;;16.48;64.81;101506.50;5054188;28;45300;-59
2022/10/13 09:30:43;;;;;;;;;6.25;5.50;;;;;16.46;64.57;101500.31;5056526;28;46155;-60
2022/10/13 09:33:10;;;;;;;;;5.00;4.00;;;;;16.49;64.66;101497.47;5055374;28;45510;-59
2022/10/13 09:35:42;;;;;;;;;5.50;5.50;;;;;16.52;64.55;101493.75;5055513;28;45408;-59
2022/10/13 09:38:13;;;;;;;;;4.25;4.00;;;;;16.53;64.80;101488.28;5044650;28;45653;-59
2022/10/13 09:40:39;;;;;;;;;4.00;4.00;;;;;16.54;64.77;101486.47;5053620;28;45527;-59
2022/10/13 09:43:33;;;;;;;;;8.25;5.25;;;;;16.57;64.90;101489.03;5055935;28;45464;-59
2022/10/13 09:46:01;;;;;;;;;6.00;4.75;;;;;16.57;64.74;101478.25;5045717;28;45450;-60
2022/10/13 09:48:33;;;;;;;;;7.75;4.00;;;;;16.58;64.72;101478.19;5056663;28;45331;-59
2022/10/13 09:50:59;;;;;;;;;4.25;4.25;;;;;16.59;65.06;101477.25;5056235;28;46602;-59
2022/10/13 09:53:32;;;;;;;;;8.50;3.75;;;;;16.54;65.26;101470.28;5055871;28;45360;-60
2022/10/13 09:56:18;;;;;;;;;2.50;2.50;;;;;16.65;65.56;101486.84;5055041;28;45499;-59
2022/10/13 09:58:55;;;;;;;;;7.00;6.50;;;;;16.65;65.70;101493.13;5058429;28;45371;-60
2022/10/13 10:01:31;;;;;;;;;5.75;5.00;;;;;16.65;66.04;101492.25;5052939;28;46929;-60
2022/10/13 10:03:56;;;;;;;;;8.00;6.00;;;;;16.65;66.06;101501.19;5052157;28;45777;-59
2022/10/13 10:06:22;;;;;;;;;7.50;6.00;;;;;16.64;66.20;101502.16;5051949;28;45470;-60
2022/10/13 10:08:56;;;;;;;;;4.50;4.50;;;;;16.65;65.97;101497.63;5056922;28;45439;-60
2022/10/13 10:11:46;;;;;;;;;4.50;4.50;;;;;16.65;66.48;101489.56;5056042;28;45788;-60
2022/10/13 10:14:25;;;;;;;;;4.75;4.75;;;;;16.66;66.36;101485.94;5052335;28;45744;-60
2022/10/13 10:17:01;;;;;;;;;6.25;5.25;;;;;16.65;66.17;101487.72;5062265;28;46526;-60
2022/10/13 10:19:59;;;;;;;;;5.00;5.00;;;;;16.64;66.21;101491.38;5059064;28;45571;-60
2022/10/13 10:22:51;;;;;;;;;6.75;6.00;;;;;16.62;66.52;101487.00;5042020;28;46173;-60
2022/10/13 10:25:34;;;;;;;;;4.50;3.00;;;;;16.60;66.30;101491.59;5070636;28;45399;-60
2022/10/13 10:28:22;;;;;;;;;5.75;4.25;;;;;16.61;66.16;101494.22;5058948;28;46035;-59
2022/10/13 10:31:19;;;;;;;;;4.50;4.50;;;;;16.60;66.48;101487.06;5047632;28;45507;-59
2022/10/13 10:34:27;;;;;;;;;5.50;4.00;;;;;16.63;66.80;101486.94;5057610;28;45345;-59
2022/10/13 10:37:01;;;;;;;;;6.00;5.00;;;;;16.63;66.47;101477.97;5055694;28;45554;-59
2022/10/13 10:39:37;;;;;;;;;9.25;7.75;;;;;16.65;66.60;101481.47;5054811;28;45470;-59
2022/10/13 10:42:21;;;;;;;;;4.00;4.00;;;;;16.65;66.59;101474.25;5058520;28;45348;-59
2022/10/13 10:44:50;;;;;;;;;5.75;5.25;;;;;16.63;66.35;101465.34;5057956;28;46734;-59
2022/10/13 10:47:32;;;;;;;;;6.75;5.00;;;;;16.67;66.75;101460.69;5055320;28;45800;-59
2022/10/13 10:50:03;;;;;;;;;8.00;7.00;;;;;16.68;66.81;101454.38;5058848;28;45395;-59
2022/10/13 10:52:47;;;;;;;;;7.75;7.00;;;;;16.74;66.75;101470.28;5039862;28;45543;-59
2022/10/13 10:55:18;;;;;;;;;6.50;6.00;;;;;16.75;66.83;101461.22;5056391;28;46493;-59
2022/10/13 10:57:55;;;;;;;;;5.50;5.00;;;;;16.78;66.58;101471.88;5053404;28;45595;-59
2022/10/13 11:00:22;;;;;;;;;6.50;5.25;;;;;16.75;66.96;101465.75;5059929;28;45482;-59
2022/10/13 11:03:18;;;;;;;;;7.50;5.00;;;;;16.81;66.60;101465.47;5059592;28;45697;-59
2022/10/13 11:06:04;;;;;;;;;6.25;6.25;;;;;16.83;66.59;101461.72;5058767;28;45462;-59
2022/10/13 11:08:41;;;;;;;;;5.75;5.75;;;;;16.83;66.74;101459.03;5055242;28;45750;-59
2022/10/13 11:11:18;;;;;;;;;3.50;3.50;;;;;16.84;66.49;101452.75;5060438;28;45619;-60
2022/10/13 11:13:56;;;;;;;;;5.25;5.25;;;;;16.87;66.41;101453.53;5059124;28;45617;-59
2022/10/13 11:16:32;;;;;;;;;7.00;6.25;;;;;16.90;66.69;101459.66;5056856;28;46313;-59
2022/10/13 11:19:28;;;;;;;;;6.75;6.75;;;;;16.90;66.40;101448.88;5059221;28;45680;-59
2022/10/13 11:21:56;;;;;;;;;6.75;5.50;;;;;16.90;66.74;101446.16;5028648;28;45499;-59
2022/10/13 11:24:40;;;;;;;;;6.25;6.25;;;;;16.89;66.60;101446.25;5056965;28;45328;-59
2022/10/13 11:27:09;;;;;;;;;8.50;7.25;;;;;16.92;66.54;101443.41;5056805;28;46219;-59